createdAt,value
2022-12-25T00:03:53.874Z,15.50
2022-12-25T00:08:55.406Z,15.38
2022-12-25T00:13:56.838Z,13.98
2022-12-25T00:18:59.097Z,13.68
2022-12-25T00:24:01.535Z,15.95
2022-12-25T00:29:03.106Z,15.75
2022-12-25T00:34:04.569Z,15.10
2022-12-25T00:39:07.262Z,14.02
2022-12-25T00:44:11.077Z,14.73
2022-12-25T00:49:12.569Z,12.75
2022-12-25T00:54:13.986Z,13.35
2022-12-25T00:59:15.471Z,11.15
2022-12-25T01:04:16.941Z,13.35
2022-12-25T01:09:36.757Z,13.02
2022-12-25T01:14:38.181Z,10.95
2022-12-25T01:19:39.717Z,12.98
2022-12-25T01:24:41.130Z,17.27
2022-12-25T01:29:42.626Z,14.18
2022-12-25T01:34:44.119Z,14.77
2022-12-25T01:39:45.555Z,14.25
2022-12-25T01:44:46.906Z,14.07
2022-12-25T01:49:50.781Z,10.98
2022-12-25T01:55:04.071Z,9.85
2022-12-25T02:00:07.468Z,11.18
2022-12-25T02:05:21.031Z,12.98
2022-12-25T02:10:22.780Z,11.68
2022-12-25T02:15:33.274Z,13.15
2022-12-25T02:20:51.854Z,13.65
2022-12-25T02:26:31.035Z,10.80
2022-12-25T02:31:40.969Z,10.75
2022-12-25T02:37:17.421Z,9.77
2022-12-25T02:43:06.413Z,11.27
2022-12-25T02:48:27.887Z,14.40
2022-12-25T02:53:48.490Z,11.65
2022-12-25T02:59:08.551Z,11.27
2022-12-25T03:04:34.210Z,12.45
2022-12-25T03:09:59.511Z,10.88
2022-12-25T03:15:20.244Z,11.50
2022-12-25T03:20:40.412Z,12.30
2022-12-25T03:26:00.411Z,9.55
2022-12-25T03:31:17.231Z,10.95
2022-12-25T03:36:34.139Z,10.27
2022-12-25T03:41:55.479Z,9.45
2022-12-25T03:47:44.648Z,10.15
2022-12-25T03:53:06.611Z,10.00
2022-12-25T03:58:36.667Z,10.00
2022-12-25T04:03:56.884Z,10.18
2022-12-25T04:09:16.950Z,13.60
2022-12-25T04:14:36.982Z,12.77
2022-12-25T04:19:56.910Z,13.90
2022-12-25T04:25:16.969Z,16.30
2022-12-25T04:30:37.033Z,14.25
2022-12-25T04:35:57.226Z,12.48
2022-12-25T04:41:00.814Z,12.90
2022-12-25T04:46:04.180Z,12.52
2022-12-25T04:51:17.787Z,13.73
2022-12-25T04:56:19.809Z,12.45
2022-12-25T05:01:21.393Z,15.95
2022-12-25T05:06:23.167Z,11.73
2022-12-25T05:11:24.637Z,10.27
2022-12-25T05:16:26.460Z,9.73
2022-12-25T05:21:27.964Z,12.98
2022-12-25T05:26:29.430Z,12.70
2022-12-25T05:31:31.003Z,10.38
2022-12-25T05:36:32.503Z,13.57
2022-12-25T05:41:34.778Z,10.55
2022-12-25T05:46:36.559Z,11.82
2022-12-25T05:51:38.063Z,10.23
2022-12-25T05:56:39.485Z,12.55
2022-12-25T06:01:41.111Z,10.95
2022-12-25T06:06:42.656Z,10.25
2022-12-25T06:11:44.226Z,11.18
2022-12-25T06:16:45.765Z,13.90
2022-12-25T06:21:47.864Z,11.55
2022-12-25T06:26:49.619Z,19.60
2022-12-25T06:31:54.894Z,24.63
2022-12-25T06:36:56.354Z,22.17
2022-12-25T06:41:57.937Z,23.30
2022-12-25T06:46:59.657Z,38.45
2022-12-25T06:52:01.139Z,27.80
2022-12-25T06:57:02.634Z,23.25
2022-12-25T07:02:04.299Z,36.40
2022-12-25T07:07:09.274Z,19.45
2022-12-25T07:12:13.504Z,25.00
2022-12-25T07:17:16.739Z,24.40
2022-12-25T07:22:18.304Z,20.38
2022-12-25T07:27:19.845Z,20.30
2022-12-25T07:32:21.255Z,26.73
2022-12-25T07:37:22.850Z,22.67
2022-12-25T07:42:25.434Z,26.45
2022-12-25T07:47:27.182Z,20.30
2022-12-25T07:52:28.593Z,20.90
2022-12-25T07:57:30.183Z,22.58
2022-12-25T08:02:31.780Z,21.05
2022-12-25T08:07:33.616Z,22.00
2022-12-25T08:12:35.052Z,19.35
2022-12-25T08:17:36.511Z,21.13
2022-12-25T08:22:37.936Z,23.00
2022-12-25T08:27:39.355Z,24.45
2022-12-25T08:32:41.424Z,32.35
2022-12-25T08:37:43.000Z,30.17
2022-12-25T08:42:44.423Z,19.95
2022-12-25T08:47:45.849Z,17.80
2022-12-25T08:52:47.299Z,17.88
2022-12-25T08:57:48.706Z,21.42
2022-12-25T09:02:50.324Z,19.67
2022-12-25T09:07:51.861Z,23.33
2022-12-25T09:12:53.280Z,19.02
2022-12-25T09:17:54.755Z,17.58
2022-12-25T09:22:56.223Z,18.52
2022-12-25T09:27:57.677Z,18.15
2022-12-25T09:32:59.261Z,20.58
2022-12-25T09:38:00.795Z,18.17
2022-12-25T09:43:03.990Z,18.33
2022-12-25T09:48:05.805Z,17.85
2022-12-25T09:53:22.109Z,21.08
2022-12-25T09:58:23.628Z,18.95
2022-12-25T10:03:31.237Z,25.73
2022-12-25T10:08:48.013Z,22.15
2022-12-25T10:13:56.667Z,18.92
2022-12-25T10:19:04.590Z,20.57
2022-12-25T10:24:43.457Z,16.88
2022-12-25T10:29:47.567Z,17.48
2022-12-25T10:34:49.686Z,17.23
2022-12-25T10:39:51.145Z,13.20
2022-12-25T10:45:04.679Z,16.52
2022-12-25T10:50:24.509Z,17.92
2022-12-25T10:55:29.272Z,14.43
2022-12-25T11:00:32.770Z,15.95
2022-12-25T11:05:36.965Z,19.40
2022-12-25T11:10:44.375Z,16.83
2022-12-25T11:15:49.465Z,17.17
2022-12-25T11:21:03.349Z,18.67
2022-12-25T11:26:07.650Z,13.38
2022-12-25T11:31:33.467Z,17.45
2022-12-25T11:36:50.108Z,14.07
2022-12-25T11:41:56.884Z,11.98
2022-12-25T11:47:08.516Z,13.50
2022-12-25T11:52:13.561Z,14.75
2022-12-25T11:57:15.154Z,19.02
2022-12-25T12:02:38.978Z,16.50
2022-12-25T12:08:00.929Z,13.85
2022-12-25T12:13:20.295Z,16.15
2022-12-25T12:18:27.541Z,13.00
2022-12-25T12:23:31.923Z,14.35
2022-12-25T12:28:44.837Z,14.70
2022-12-25T12:33:53.572Z,15.57
2022-12-25T12:38:57.889Z,14.30
2022-12-25T12:44:03.086Z,18.17
2022-12-25T12:49:21.716Z,17.08
2022-12-25T12:54:25.780Z,13.68
2022-12-25T12:59:46.876Z,14.85
2022-12-25T13:04:52.810Z,15.35
2022-12-25T13:10:12.834Z,14.23
2022-12-25T13:15:14.789Z,15.38
2022-12-25T13:20:24.117Z,16.02
2022-12-25T13:25:25.614Z,12.15
2022-12-25T13:30:27.257Z,15.18
2022-12-25T13:35:29.595Z,13.98
2022-12-25T13:40:31.144Z,15.02
2022-12-25T13:45:34.478Z,15.25
2022-12-25T13:50:36.435Z,16.60
2022-12-25T13:55:38.417Z,16.92
2022-12-25T14:00:48.741Z,19.95
2022-12-25T14:06:01.778Z,17.95
2022-12-25T14:11:05.839Z,20.77
2022-12-25T14:16:08.428Z,22.63
2022-12-25T14:21:16.109Z,19.88
2022-12-25T14:26:20.070Z,20.58
2022-12-25T14:31:23.664Z,22.48
2022-12-25T14:36:26.054Z,20.77
2022-12-25T14:41:41.147Z,19.48
2022-12-25T14:46:42.861Z,21.67
2022-12-25T14:51:44.340Z,20.60
2022-12-25T14:56:51.229Z,26.08
2022-12-25T15:02:01.236Z,21.83
2022-12-25T15:07:09.573Z,17.85
2022-12-25T15:12:11.750Z,21.65
2022-12-25T15:17:24.901Z,22.90
2022-12-25T15:22:26.389Z,21.92
2022-12-25T15:27:27.839Z,27.67
2022-12-25T15:32:29.315Z,26.17
2022-12-25T15:37:30.752Z,28.42
2022-12-25T15:42:32.165Z,29.30
2022-12-25T15:47:34.769Z,29.73
2022-12-25T15:52:36.197Z,29.50
2022-12-25T15:57:41.024Z,35.33
2022-12-25T16:02:42.547Z,35.78
2022-12-25T16:07:46.071Z,38.63
2022-12-25T16:12:47.664Z,38.55
2022-12-25T16:17:49.130Z,36.17
2022-12-25T16:22:50.581Z,43.38
2022-12-25T16:27:52.027Z,43.03
2022-12-25T16:32:54.040Z,45.97
2022-12-25T16:37:55.455Z,46.72
2022-12-25T16:42:57.097Z,43.05
2022-12-25T16:47:58.506Z,36.10
2022-12-25T16:52:59.948Z,34.50
2022-12-25T16:58:01.386Z,39.60
2022-12-25T17:03:02.955Z,35.95
2022-12-25T17:08:04.829Z,35.40
2022-12-25T17:13:06.335Z,37.08
2022-12-25T17:18:07.745Z,34.63
2022-12-25T17:23:09.206Z,37.22
2022-12-25T17:28:10.645Z,35.80
2022-12-25T17:33:12.188Z,44.30
2022-12-25T17:38:13.668Z,40.35
2022-12-25T17:43:20.554Z,39.88
2022-12-25T17:48:22.839Z,43.05
2022-12-25T17:53:24.267Z,37.80
2022-12-25T17:58:26.949Z,40.58
2022-12-25T18:03:28.493Z,38.95
2022-12-25T18:08:35.333Z,38.10
2022-12-25T18:13:42.092Z,42.17
2022-12-25T18:18:51.144Z,41.28
2022-12-25T18:23:53.662Z,43.47
2022-12-25T18:28:55.670Z,40.53
2022-12-25T18:33:58.897Z,42.03
2022-12-25T18:39:00.358Z,47.67
2022-12-25T18:44:01.826Z,52.85
2022-12-25T18:49:03.229Z,46.53
2022-12-25T18:54:04.687Z,42.10
2022-12-25T18:59:06.147Z,39.08
2022-12-25T19:04:12.481Z,43.38
2022-12-25T19:09:13.929Z,41.30
2022-12-25T19:14:15.715Z,42.63
2022-12-25T19:19:17.903Z,41.47
2022-12-25T19:24:20.270Z,38.00
2022-12-25T19:29:21.685Z,40.67
2022-12-25T19:34:23.394Z,40.60
2022-12-25T19:39:24.816Z,47.00
2022-12-25T19:44:26.465Z,41.33
2022-12-25T19:49:27.912Z,39.40
2022-12-25T19:54:29.522Z,36.90
2022-12-25T19:59:31.003Z,36.80
2022-12-25T20:04:32.441Z,39.72
2022-12-25T20:09:33.837Z,37.42
2022-12-25T20:14:35.280Z,38.38
2022-12-25T20:19:36.699Z,38.63
2022-12-25T20:24:38.204Z,36.63
2022-12-25T20:29:39.652Z,32.95
2022-12-25T20:34:41.188Z,38.72
2022-12-25T20:39:42.650Z,33.90
2022-12-25T20:44:44.122Z,32.78
2022-12-25T20:49:47.350Z,31.77
2022-12-25T20:54:49.227Z,28.58
2022-12-25T20:59:50.902Z,28.08
2022-12-25T21:04:54.249Z,27.75
2022-12-25T21:09:56.002Z,35.72
2022-12-25T21:14:57.457Z,26.63
2022-12-25T21:19:58.987Z,26.58
2022-12-25T21:25:00.521Z,28.23
2022-12-25T21:30:14.492Z,28.05
2022-12-25T21:35:17.388Z,24.48
2022-12-25T21:40:18.826Z,23.85
2022-12-25T21:45:20.234Z,25.52
2022-12-25T21:50:40.094Z,24.90
2022-12-25T21:55:41.536Z,19.88
2022-12-25T22:00:42.945Z,21.48
2022-12-25T22:06:03.030Z,25.85
2022-12-25T22:11:04.969Z,21.00
2022-12-25T22:16:25.364Z,21.92
2022-12-25T22:21:26.802Z,23.05
2022-12-25T22:26:28.217Z,26.33
2022-12-25T22:31:29.790Z,25.13
2022-12-25T22:36:31.319Z,24.83
2022-12-25T22:41:33.860Z,26.20
2022-12-25T22:46:35.858Z,26.83
2022-12-25T22:51:37.340Z,26.48
2022-12-25T22:56:39.983Z,34.25
2022-12-25T23:01:41.966Z,26.25
2022-12-25T23:06:44.217Z,26.23
2022-12-25T23:11:45.845Z,28.17
2022-12-25T23:16:47.261Z,26.42
2022-12-25T23:22:07.693Z,27.55
2022-12-25T23:27:09.543Z,28.60
2022-12-25T23:32:14.197Z,31.75
2022-12-25T23:37:15.680Z,23.17
2022-12-25T23:42:17.575Z,26.83
2022-12-25T23:47:18.999Z,25.33
2022-12-25T23:52:20.401Z,28.75
2022-12-25T23:57:21.874Z,22.67
